Time;durP1;ratioP1;P1;durP2;ratioP2;P2;SDS_P1;SDS_P2;PMS_P1;PMS_P2;Temp;Humidity;BMP_temperature;BMP_pressure;BME280_temperature;BME280_humidity;BME280_pressure;Samples;Min_cycle;Max_cycle;Signal;HPM_P1;HPM_P2
2023/10/04 00:00:51;;;;;;;10.35;5.22;;;12.10;99.90;;;;;;4972026;28;20212;-61
2023/10/04 00:03:18;;;;;;;10.02;4.70;;;12.00;99.90;;;;;;4974692;28;20154;-61
2023/10/04 00:05:44;;;;;;;11.57;4.88;;;12.00;99.90;;;;;;4974782;28;20172;-62
2023/10/04 00:08:10;;;;;;;8.90;4.57;;;12.00;99.90;;;;;;4974699;28;20177;-62
2023/10/04 00:10:36;;;;;;;12.48;4.78;;;12.00;99.90;;;;;;4973895;28;20670;-61
2023/10/04 00:13:01;;;;;;;8.75;4.57;;;12.00;99.90;;;;;;4974539;28;20241;-61
2023/10/04 00:15:29;;;;;;;9.95;4.95;;;12.00;99.90;;;;;;4974505;28;20184;-62
2023/10/04 00:17:55;;;;;;;12.43;5.45;;;12.00;99.90;;;;;;4974033;28;20235;-61
2023/10/04 00:20:22;;;;;;;10.20;4.53;;;12.00;99.90;;;;;;4973199;28;20209;-62
2023/10/04 00:22:48;;;;;;;10.27;4.80;;;12.10;99.90;;;;;;4974339;28;20169;-62
2023/10/04 00:25:21;;;;;;;9.40;5.30;;;12.10;99.90;;;;;;4974470;28;20239;-62
2023/10/04 00:27:48;;;;;;;11.45;5.63;;;12.10;99.90;;;;;;4978789;28;20639;-61
2023/10/04 00:30:15;;;;;;;8.18;4.57;;;12.10;99.90;;;;;;4978551;28;20698;-62
2023/10/04 00:32:41;;;;;;;11.15;5.53;;;12.10;99.90;;;;;;4978731;28;20232;-62
2023/10/04 00:35:12;;;;;;;12.65;4.60;;;12.10;99.90;;;;;;4975401;28;20617;-62
2023/10/04 00:37:42;;;;;;;11.35;4.55;;;12.00;99.90;;;;;;4960824;28;20795;-61
2023/10/04 00:40:17;;;;;;;11.77;5.28;;;12.00;99.90;;;;;;4978255;28;20153;-62
2023/10/04 00:42:43;;;;;;;10.93;5.72;;;12.00;99.90;;;;;;4957656;29;20209;-62
2023/10/04 00:45:13;;;;;;;10.63;5.13;;;12.00;99.90;;;;;;4959335;29;20217;-62
2023/10/04 00:47:47;;;;;;;14.75;5.30;;;11.90;99.90;;;;;;4980649;28;20188;-62
2023/10/04 00:50:18;;;;;;;11.05;5.13;;;11.90;99.90;;;;;;4997861;28;20276;-62
2023/10/04 00:52:58;;;;;;;10.43;5.03;;;11.90;99.90;;;;;;4995445;28;20173;-61
2023/10/04 00:55:26;;;;;;;9.43;4.88;;;11.80;99.90;;;;;;4988197;28;20173;-62
2023/10/04 00:57:54;;;;;;;9.27;4.68;;;11.80;99.90;;;;;;4991833;28;20181;-62
2023/10/04 01:00:21;;;;;;;12.02;4.70;;;11.80;99.90;;;;;;4997475;28;20235;-62
2023/10/04 01:02:47;;;;;;;11.82;4.80;;;11.80;99.90;;;;;;4979825;28;20184;-62
2023/10/04 01:05:15;;;;;;;12.57;4.82;;;11.70;99.90;;;;;;4997269;28;20179;-62
2023/10/04 01:07:42;;;;;;;8.10;4.72;;;11.70;99.90;;;;;;4997339;28;20169;-62
2023/10/04 01:10:14;;;;;;;10.20;4.80;;;11.70;99.90;;;;;;4987899;28;20220;-62
2023/10/04 01:12:46;;;;;;;12.40;4.90;;;11.60;99.90;;;;;;4977542;28;20173;-62
2023/10/04 01:15:25;;;;;;;17.73;5.20;;;11.60;99.90;;;;;;4978264;28;20158;-63
2023/10/04 01:18:01;;;;;;;13.93;5.43;;;11.50;99.90;;;;;;4977517;28;20217;-61
2023/10/04 01:20:29;;;;;;;11.68;4.25;;;11.50;99.90;;;;;;4979643;28;20208;-62
2023/10/04 01:23:02;;;;;;;9.40;4.90;;;11.50;99.90;;;;;;4997037;28;20181;-62
2023/10/04 01:25:35;;;;;;;10.98;4.70;;;11.50;99.90;;;;;;4996558;28;20196;-61
2023/10/04 01:28:07;;;;;;;9.88;5.28;;;11.50;99.90;;;;;;4991521;28;20188;-62
2023/10/04 01:30:33;;;;;;;16.25;4.93;;;11.50;99.90;;;;;;4972766;28;20215;-62
2023/10/04 01:33:03;;;;;;;7.43;4.53;;;11.50;99.90;;;;;;4977051;28;20275;-62
2023/10/04 01:35:29;;;;;;;11.65;5.47;;;11.40;99.90;;;;;;4977173;28;20554;-62
2023/10/04 01:37:55;;;;;;;10.93;4.47;;;11.40;99.90;;;;;;4957863;28;20638;-63
2023/10/04 01:40:31;;;;;;;10.32;5.00;;;11.30;99.90;;;;;;4959192;28;20220;-62
2023/10/04 01:42:57;;;;;;;10.25;4.70;;;11.40;99.90;;;;;;4959427;28;20548;-62
2023/10/04 01:45:23;;;;;;;10.55;5.50;;;11.50;99.90;;;;;;4972005;28;20194;-62
2023/10/04 01:47:50;;;;;;;9.05;4.53;;;11.40;99.90;;;;;;4976856;28;20197;-61
2023/10/04 01:50:17;;;;;;;13.55;4.97;;;11.40;99.90;;;;;;4976866;28;20228;-62
2023/10/04 01:52:46;;;;;;;13.23;5.28;;;11.40;99.90;;;;;;4996017;28;20196;-62
2023/10/04 01:55:12;;;;;;;15.23;5.82;;;11.40;99.90;;;;;;4996381;28;20230;-62
2023/10/04 01:57:40;;;;;;;10.75;5.32;;;11.30;99.90;;;;;;4964653;28;20183;-62
2023/10/04 02:00:09;;;;;;;9.10;4.60;;;11.30;99.90;;;;;;4975656;28;20535;-61
2023/10/04 02:02:38;;;;;;;10.88;4.45;;;11.30;99.90;;;;;;4977033;28;20187;-62
2023/10/04 02:05:05;;;;;;;9.52;4.70;;;11.30;99.90;;;;;;4959054;28;20185;-62
2023/10/04 02:07:33;;;;;;;9.75;4.57;;;11.40;99.90;;;;;;4976520;28;20264;-62
2023/10/04 02:09:59;;;;;;;9.75;4.47;;;11.40;99.90;;;;;;4976573;28;20181;-62
2023/10/04 02:12:24;;;;;;;10.70;4.65;;;11.40;99.90;;;;;;4966670;28;20173;-62
2023/10/04 02:14:50;;;;;;;11.27;5.40;;;11.40;99.90;;;;;;4959103;28;20192;-62
2023/10/04 02:17:17;;;;;;;8.80;4.65;;;11.40;99.90;;;;;;4973812;28;20189;-62
2023/10/04 02:19:44;;;;;;;9.77;5.13;;;11.40;99.90;;;;;;4958667;28;20193;-62
2023/10/04 02:22:10;;;;;;;8.60;4.47;;;11.40;99.90;;;;;;4995524;28;20249;-62
2023/10/04 02:24:39;;;;;;;11.40;5.05;;;11.40;99.90;;;;;;4995662;28;20176;-62
2023/10/04 02:27:08;;;;;;;14.32;5.20;;;11.50;99.90;;;;;;4990011;28;20178;-62
2023/10/04 02:29:35;;;;;;;14.18;4.72;;;11.50;99.90;;;;;;4976338;28;20177;-62
2023/10/04 02:32:09;;;;;;;10.80;4.82;;;11.50;99.90;;;;;;4957615;28;20201;-62
2023/10/04 02:34:35;;;;;;;13.02;4.63;;;11.50;99.90;;;;;;4958730;28;20177;-62
2023/10/04 02:37:07;;;;;;;9.00;4.53;;;11.50;99.90;;;;;;4975925;28;20602;-62
2023/10/04 02:39:37;;;;;;;9.98;4.88;;;11.40;99.90;;;;;;4976410;28;20606;-62
2023/10/04 02:42:09;;;;;;;14.38;5.15;;;11.50;99.90;;;;;;4975638;28;20266;-62
2023/10/04 02:44:38;;;;;;;13.13;4.75;;;11.40;99.90;;;;;;4976125;28;20248;-62
2023/10/04 02:47:08;;;;;;;12.55;5.72;;;11.50;99.90;;;;;;4958396;28;20196;-63
2023/10/04 02:49:37;;;;;;;16.65;5.32;;;11.50;99.90;;;;;;4973249;28;20205;-62
2023/10/04 02:52:05;;;;;;;10.45;4.68;;;11.50;99.90;;;;;;4975874;28;20189;-62
2023/10/04 02:54:32;;;;;;;24.85;6.07;;;11.50;99.90;;;;;;4975631;28;20260;-62
2023/10/04 02:56:58;;;;;;;10.75;5.38;;;11.60;99.90;;;;;;4975087;28;20180;-62
2023/10/04 02:59:25;;;;;;;12.75;4.80;;;11.60;99.90;;;;;;4956344;29;20162;-62
2023/10/04 03:01:51;;;;;;;12.65;5.35;;;11.60;99.90;;;;;;4956240;28;20201;-62
2023/10/04 03:04:19;;;;;;;14.50;5.50;;;11.60;99.90;;;;;;4966147;28;20212;-62
2023/10/04 03:06:46;;;;;;;13.18;4.88;;;11.70;99.90;;;;;;4975199;28;20185;-62
2023/10/04 03:09:12;;;;;;;9.65;5.47;;;11.70;99.90;;;;;;4976019;28;20165;-62
2023/10/04 03:11:42;;;;;;;16.65;4.85;;;11.70;99.90;;;;;;4975334;28;20688;-62
2023/10/04 03:14:08;;;;;;;17.33;5.95;;;11.70;99.90;;;;;;4975362;28;20209;-61
2023/10/04 03:16:34;;;;;;;9.98;4.88;;;11.70;99.90;;;;;;4973558;28;20220;-60
2023/10/04 03:19:01;;;;;;;16.33;5.68;;;11.70;99.90;;;;;;4972444;28;20272;-61
2023/10/04 03:21:31;;;;;;;14.45;4.93;;;11.70;99.90;;;;;;4974332;28;20674;-60
2023/10/04 03:24:06;;;;;;;13.60;5.95;;;11.70;99.90;;;;;;4975729;28;20182;-61
2023/10/04 03:26:32;;;;;;;11.50;5.18;;;11.70;99.90;;;;;;4957872;28;20607;-60
2023/10/04 03:28:58;;;;;;;15.15;5.88;;;11.70;99.90;;;;;;4957463;28;20189;-60
2023/10/04 03:31:24;;;;;;;10.23;5.25;;;11.70;99.90;;;;;;4974957;28;20572;-60
2023/10/04 03:33:50;;;;;;;8.63;5.30;;;11.70;99.90;;;;;;4973275;28;20713;-61
2023/10/04 03:36:18;;;;;;;13.55;5.95;;;11.70;99.90;;;;;;4971452;28;20548;-61
2023/10/04 03:38:44;;;;;;;14.52;6.03;;;11.70;99.90;;;;;;4972656;28;20162;-62
2023/10/04 03:41:11;;;;;;;12.45;5.80;;;11.70;99.90;;;;;;4971755;28;20212;-62
2023/10/04 03:43:36;;;;;;;13.77;5.90;;;11.80;99.90;;;;;;4973071;28;20302;-62
2023/10/04 03:46:18;;;;;;;13.95;6.00;;;11.70;99.90;;;;;;4973041;28;20274;-61
2023/10/04 03:48:49;;;;;;;16.98;6.82;;;11.80;99.90;;;;;;4952168;29;20269;-62
2023/10/04 03:51:22;;;;;;;13.70;6.60;;;11.80;99.90;;;;;;4955154;28;20201;-62
2023/10/04 03:53:49;;;;;;;15.23;6.45;;;11.70;99.90;;;;;;4955858;29;20245;-62
2023/10/04 03:56:17;;;;;;;12.88;6.53;;;11.80;99.90;;;;;;4955376;29;20260;-62
2023/10/04 03:58:43;;;;;;;20.85;6.75;;;11.80;99.90;;;;;;4955436;29;20253;-62
2023/10/04 04:01:10;;;;;;;19.95;7.10;;;11.80;99.90;;;;;;4954435;28;20216;-62
2023/10/04 04:03:36;;;;;;;12.05;6.70;;;11.80;99.90;;;;;;4955410;29;20178;-62
2023/10/04 04:06:02;;;;;;;18.65;6.65;;;11.80;99.90;;;;;;4955354;29;20218;-62
2023/10/04 04:08:28;;;;;;;15.25;6.55;;;11.80;99.90;;;;;;4954098;29;20256;-62
2023/10/04 04:10:54;;;;;;;15.27;6.28;;;11.90;99.90;;;;;;4962615;28;20293;-62
2023/10/04 04:13:20;;;;;;;15.05;7.00;;;11.80;99.90;;;;;;4974477;28;20177;-62
2023/10/04 04:15:48;;;;;;;19.50;6.30;;;11.80;99.90;;;;;;4974703;28;20232;-62
2023/10/04 04:18:20;;;;;;;22.52;7.47;;;11.80;99.90;;;;;;4974468;28;20594;-62
2023/10/04 04:20:48;;;;;;;12.48;6.65;;;11.80;99.90;;;;;;4974259;28;20244;-62
2023/10/04 04:23:18;;;;;;;12.30;6.53;;;11.80;99.90;;;;;;4974425;28;20173;-62
2023/10/04 04:25:45;;;;;;;16.13;6.95;;;11.80;99.90;;;;;;4974725;28;20212;-62
2023/10/04 04:28:16;;;;;;;14.50;6.75;;;11.80;99.90;;;;;;4974633;28;20215;-62
2023/10/04 04:30:43;;;;;;;12.77;6.57;;;11.80;99.90;;;;;;4974878;28;20193;-62
2023/10/04 04:33:10;;;;;;;23.58;8.05;;;11.80;99.90;;;;;;4974436;28;20629;-62
2023/10/04 04:38:24;;;;;;;15.95;5.85;;;11.80;99.90;;;;;;4974423;28;20251;-62
2023/10/04 04:40:56;;;;;;;14.77;6.45;;;11.80;99.90;;;;;;4974577;28;20696;-62
2023/10/04 04:45:53;;;;;;;16.05;6.30;;;11.90;99.90;;;;;;4974245;28;20172;-62
2023/10/04 04:48:23;;;;;;;21.52;6.80;;;11.90;99.90;;;;;;4984202;28;20185;-62
2023/10/04 04:50:54;;;;;;;15.93;7.20;;;12.00;99.90;;;;;;4993537;28;20242;-62
2023/10/04 04:53:22;;;;;;;12.05;6.43;;;12.00;99.90;;;;;;4993960;28;20165;-62
2023/10/04 04:55:50;;;;;;;12.60;6.15;;;12.00;99.90;;;;;;4993885;28;20176;-62
2023/10/04 04:58:18;;;;;;;13.98;6.68;;;12.00;99.90;;;;;;4993688;28;20161;-62
2023/10/04 05:00:47;;;;;;;11.68;6.47;;;12.00;99.90;;;;;;4993429;28;20228;-62
2023/10/04 05:03:13;;;;;;;10.45;6.15;;;12.00;99.90;;;;;;4993785;28;20219;-62
2023/10/04 05:05:39;;;;;;;15.07;6.30;;;12.00;99.90;;;;;;4993382;28;20593;-61
2023/10/04 05:08:05;;;;;;;16.25;6.50;;;11.90;99.90;;;;;;4993501;28;20168;-61
2023/10/04 05:10:38;;;;;;;22.88;7.18;;;11.80;99.90;;;;;;4989434;28;20231;-61
2023/10/04 05:13:13;;;;;;;14.85;6.30;;;11.80;99.90;;;;;;4977445;28;20224;-61
2023/10/04 05:15:42;;;;;;;22.80;7.88;;;11.80;99.90;;;;;;4978102;28;20227;-61
2023/10/04 05:18:12;;;;;;;14.23;6.57;;;11.80;99.90;;;;;;4977475;28;20192;-61
2023/10/04 05:20:38;;;;;;;12.98;6.45;;;11.80;99.90;;;;;;4977306;28;20228;-61
2023/10/04 05:23:05;;;;;;;17.25;6.28;;;11.80;99.90;;;;;;4977412;28;20173;-61
2023/10/04 05:25:31;;;;;;;16.30;7.45;;;11.80;99.90;;;;;;4977511;28;20185;-61
2023/10/04 05:28:14;;;;;;;15.93;7.53;;;11.70;99.90;;;;;;4977479;28;20172;-61
2023/10/04 05:30:43;;;;;;;17.20;8.23;;;11.70;99.90;;;;;;4977611;28;20267;-61
2023/10/04 05:33:10;;;;;;;17.15;7.10;;;11.70;99.90;;;;;;4977281;28;20646;-61
2023/10/04 05:35:37;;;;;;;14.65;6.85;;;11.60;99.90;;;;;;4977145;28;20193;-62
2023/10/04 05:38:07;;;;;;;13.32;7.38;;;11.60;99.90;;;;;;4977539;28;20250;-62
2023/10/04 05:40:35;;;;;;;17.27;7.68;;;11.60;99.90;;;;;;4977083;28;20211;-61
2023/10/04 05:43:02;;;;;;;14.20;7.78;;;11.60;99.90;;;;;;4977116;28;20169;-62
2023/10/04 05:45:28;;;;;;;15.60;7.93;;;11.60;99.90;;;;;;4977046;28;20256;-62
2023/10/04 05:47:55;;;;;;;16.63;8.10;;;11.50;99.90;;;;;;4976977;28;20219;-62
2023/10/04 05:50:22;;;;;;;17.20;7.68;;;11.50;99.90;;;;;;4976738;28;20259;-62
2023/10/04 05:52:52;;;;;;;16.35;8.30;;;11.50;99.90;;;;;;4977406;28;20515;-62
2023/10/04 05:55:18;;;;;;;17.55;8.80;;;11.40;99.90;;;;;;4977337;28;20256;-62
2023/10/04 05:57:45;;;;;;;15.27;8.18;;;11.40;99.90;;;;;;4977004;28;20535;-63
2023/10/04 06:00:28;;;;;;;16.25;8.30;;;11.40;99.90;;;;;;4976927;28;20244;-62
2023/10/04 06:03:06;;;;;;;18.77;8.60;;;11.40;99.90;;;;;;4976919;28;20240;-62
2023/10/04 06:05:34;;;;;;;19.77;9.23;;;11.40;99.90;;;;;;4976526;28;20177;-61
2023/10/04 06:08:11;;;;;;;14.33;9.57;;;11.40;99.90;;;;;;4976619;28;20168;-62
2023/10/04 06:10:38;;;;;;;19.83;10.20;;;11.40;99.90;;;;;;4959279;28;20213;-61
2023/10/04 06:13:11;;;;;;;23.63;10.20;;;11.40;99.90;;;;;;4977136;28;20169;-62
2023/10/04 06:15:44;;;;;;;16.23;9.95;;;11.40;99.90;;;;;;4976633;28;20162;-62
2023/10/04 06:18:12;;;;;;;25.43;9.60;;;11.50;99.90;;;;;;4976417;28;20196;-62
2023/10/04 06:20:40;;;;;;;15.07;10.47;;;11.50;99.90;;;;;;4976223;28;20603;-62
2023/10/04 06:23:09;;;;;;;21.50;10.60;;;11.50;99.90;;;;;;4975266;28;20174;-62
2023/10/04 06:25:42;;;;;;;25.10;10.90;;;11.50;99.90;;;;;;4976593;28;20185;-61
2023/10/04 06:28:11;;;;;;;25.67;11.27;;;11.50;99.90;;;;;;4976376;28;20189;-62
2023/10/04 06:30:39;;;;;;;16.75;10.10;;;11.60;99.90;;;;;;4958996;28;20197;-61
2023/10/04 06:33:07;;;;;;;22.23;11.48;;;11.60;99.90;;;;;;4976296;28;20173;-61
2023/10/04 06:35:33;;;;;;;25.90;11.53;;;11.60;99.90;;;;;;4976229;28;20177;-62
2023/10/04 06:38:01;;;;;;;26.63;11.25;;;11.60;99.90;;;;;;4991969;28;20539;-61
2023/10/04 06:40:31;;;;;;;23.38;13.32;;;11.70;99.90;;;;;;4991743;28;20693;-61
2023/10/04 06:42:58;;;;;;;19.00;11.88;;;11.70;99.90;;;;;;4976376;28;20188;-61
2023/10/04 06:45:24;;;;;;;22.65;12.18;;;11.70;99.90;;;;;;4976065;28;20168;-61
2023/10/04 06:47:53;;;;;;;22.92;12.68;;;11.80;99.90;;;;;;4975825;28;20212;-62
2023/10/04 06:50:21;;;;;;;21.55;12.60;;;11.80;99.90;;;;;;4958464;28;20193;-62
2023/10/04 06:52:48;;;;;;;24.15;13.48;;;11.90;99.90;;;;;;4975928;28;20197;-61
2023/10/04 06:55:15;;;;;;;25.23;12.07;;;11.90;99.90;;;;;;4976313;28;20311;-61
2023/10/04 06:57:42;;;;;;;22.52;13.02;;;12.00;99.90;;;;;;4975919;28;20205;-61
2023/10/04 07:00:16;;;;;;;23.60;12.30;;;12.10;99.90;;;;;;4958588;28;20204;-61
2023/10/04 07:02:54;;;;;;;23.13;13.15;;;12.10;99.90;;;;;;4975866;28;20251;-61
2023/10/04 07:05:24;;;;;;;24.58;12.98;;;12.20;99.90;;;;;;4975878;28;20685;-61
2023/10/04 07:07:53;;;;;;;23.60;12.80;;;12.20;99.90;;;;;;4977354;28;20177;-62
2023/10/04 07:10:24;;;;;;;25.77;12.82;;;12.30;99.90;;;;;;4976554;28;20208;-61
2023/10/04 07:12:57;;;;;;;25.90;11.77;;;12.40;99.90;;;;;;4975912;28;20166;-61
2023/10/04 07:15:24;;;;;;;21.98;11.45;;;12.50;99.90;;;;;;4975441;28;20153;-61
2023/10/04 07:17:50;;;;;;;18.85;11.88;;;12.60;99.90;;;;;;4975624;28;20658;-61
2023/10/04 07:20:18;;;;;;;23.13;12.15;;;12.60;99.90;;;;;;4975053;28;20547;-61
2023/10/04 07:22:58;;;;;;;24.80;12.65;;;12.80;99.90;;;;;;4975400;28;20196;-61
2023/10/04 07:25:28;;;;;;;19.42;11.00;;;12.90;99.90;;;;;;4957905;28;20681;-61
2023/10/04 07:28:02;;;;;;;21.33;11.10;;;12.90;99.90;;;;;;4975366;28;20166;-62
2023/10/04 07:30:33;;;;;;;22.58;11.25;;;13.00;99.90;;;;;;4975351;28;20189;-61
2023/10/04 07:32:59;;;;;;;21.20;11.35;;;13.10;99.90;;;;;;4975486;28;20150;-61
2023/10/04 07:35:27;;;;;;;22.08;11.68;;;13.20;99.90;;;;;;4974710;28;20180;-61
2023/10/04 07:37:55;;;;;;;21.02;11.80;;;13.30;99.90;;;;;;4976339;28;20170;-61
2023/10/04 07:40:23;;;;;;;19.08;10.23;;;13.30;99.90;;;;;;4975489;28;20204;-61
2023/10/04 07:42:54;;;;;;;19.08;9.98;;;13.40;99.90;;;;;;4975045;28;20177;-62
2023/10/04 07:45:25;;;;;;;17.13;9.50;;;13.30;99.90;;;;;;4974997;28;20154;-62
2023/10/04 07:47:52;;;;;;;19.90;9.68;;;13.50;99.90;;;;;;4975007;28;20185;-61
2023/10/04 07:50:25;;;;;;;19.80;9.90;;;13.40;99.90;;;;;;4974933;28;20193;-63
2023/10/04 07:52:59;;;;;;;14.35;8.35;;;13.60;99.90;;;;;;4975979;28;20150;-61
2023/10/04 07:55:25;;;;;;;17.65;8.70;;;13.70;99.90;;;;;;4974882;28;20259;-61
2023/10/04 07:58:04;;;;;;;21.92;8.70;;;13.80;99.90;;;;;;4975658;28;20193;-62
2023/10/04 08:00:33;;;;;;;13.00;7.90;;;13.90;99.90;;;;;;4975095;28;20201;-63
2023/10/04 08:02:59;;;;;;;17.35;8.90;;;13.90;99.90;;;;;;4975962;28;20497;-62
2023/10/04 08:05:27;;;;;;;15.00;8.35;;;13.80;99.90;;;;;;4974553;28;20273;-63
2023/10/04 08:07:55;;;;;;;20.00;8.70;;;13.90;99.90;;;;;;4974982;28;20162;-63
2023/10/04 08:10:25;;;;;;;16.10;7.78;;;13.90;99.90;;;;;;4974465;28;20654;-62
2023/10/04 08:12:53;;;;;;;11.07;7.72;;;14.00;99.90;;;;;;4974911;28;20185;-62
2023/10/04 08:15:20;;;;;;;19.70;8.60;;;14.10;99.90;;;;;;4974670;28;20170;-62
2023/10/04 08:17:49;;;;;;;23.88;8.98;;;14.10;99.90;;;;;;4972699;28;20184;-63
2023/10/04 08:20:20;;;;;;;13.43;8.17;;;14.20;99.90;;;;;;4993635;28;20196;-63
2023/10/04 08:22:46;;;;;;;18.73;8.45;;;14.30;99.90;;;;;;4994243;28;20625;-63
2023/10/04 08:25:16;;;;;;;25.13;9.05;;;14.40;99.90;;;;;;4994166;28;20196;-62
2023/10/04 08:27:42;;;;;;;14.95;7.88;;;14.50;99.90;;;;;;4993881;28;20176;-62
2023/10/04 08:30:13;;;;;;;16.42;8.32;;;14.50;99.90;;;;;;4976440;28;20161;-62
2023/10/04 08:32:44;;;;;;;18.92;8.32;;;14.50;99.90;;;;;;4995473;28;20164;-63
2023/10/04 08:35:21;;;;;;;21.77;8.90;;;14.60;99.90;;;;;;4976109;28;20692;-61
2023/10/04 08:37:53;;;;;;;16.55;8.60;;;14.70;99.90;;;;;;4994112;28;20548;-61
2023/10/04 08:40:20;;;;;;;18.17;8.45;;;14.70;99.90;;;;;;4973575;28;20200;-60
2023/10/04 08:42:48;;;;;;;14.30;7.93;;;14.80;99.90;;;;;;4974836;28;20533;-61
2023/10/04 08:45:15;;;;;;;14.10;6.88;;;14.80;99.90;;;;;;4974618;28;20185;-61
2023/10/04 08:47:45;;;;;;;17.60;8.13;;;14.90;99.90;;;;;;4974343;28;20268;-60
2023/10/04 08:50:14;;;;;;;15.68;8.07;;;14.80;99.90;;;;;;4997515;28;20172;-61
2023/10/04 08:52:44;;;;;;;16.55;8.52;;;14.90;99.90;;;;;;4997859;28;20180;-61
2023/10/04 08:55:16;;;;;;;13.57;7.25;;;15.20;99.90;;;;;;4997742;28;20572;-61
2023/10/04 08:57:43;;;;;;;20.50;8.40;;;15.10;99.90;;;;;;4997786;28;20164;-62
2023/10/04 09:00:13;;;;;;;18.67;7.80;;;15.10;99.90;;;;;;4997953;28;20516;-61
2023/10/04 09:02:46;;;;;;;15.55;7.88;;;15.00;99.90;;;;;;4997237;28;20223;-61
2023/10/04 09:05:17;;;;;;;15.50;7.03;;;15.10;99.90;;;;;;4979676;28;20168;-61
2023/10/04 09:07:45;;;;;;;15.02;7.30;;;15.20;99.90;;;;;;4997526;28;20194;-62
2023/10/04 09:10:16;;;;;;;16.73;7.90;;;15.40;99.90;;;;;;4995636;28;20235;-61
2023/10/04 09:12:48;;;;;;;16.48;7.40;;;15.50;99.90;;;;;;4977815;28;20161;-61
2023/10/04 09:15:14;;;;;;;16.58;7.68;;;15.50;99.90;;;;;;4977709;28;20161;-60
2023/10/04 09:17:46;;;;;;;15.75;7.30;;;15.40;99.90;;;;;;4974866;28;20641;-61
2023/10/04 09:20:16;;;;;;;20.10;7.40;;;15.30;99.90;;;;;;4996808;28;20243;-61
2023/10/04 09:22:43;;;;;;;17.67;8.13;;;15.40;99.90;;;;;;4997010;28;20235;-63
2023/10/04 09:25:11;;;;;;;15.10;7.28;;;15.30;99.90;;;;;;4996928;28;20191;-61
2023/10/04 09:27:37;;;;;;;11.07;6.75;;;15.40;99.90;;;;;;4996831;28;20183;-60
2023/10/04 09:30:23;;;;;;;15.52;7.32;;;15.40;99.90;;;;;;4997060;28;20161;-62
2023/10/04 09:32:54;;;;;;;16.75;7.00;;;15.50;99.90;;;;;;4997160;28;20203;-63
2023/10/04 09:35:20;;;;;;;18.98;7.25;;;15.60;99.90;;;;;;4996829;28;20171;-61
2023/10/04 09:37:49;;;;;;;11.90;6.47;;;15.70;99.90;;;;;;4998139;28;20177;-62
2023/10/04 09:40:17;;;;;;;16.60;6.93;;;15.80;99.90;;;;;;4994365;28;20172;-62
2023/10/04 09:42:51;;;;;;;14.02;7.13;;;15.80;99.90;;;;;;4977129;28;20170;-62
2023/10/04 09:45:20;;;;;;;16.65;6.90;;;15.80;99.90;;;;;;4959645;28;20177;-63
2023/10/04 09:47:53;;;;;;;18.40;6.35;;;15.80;99.90;;;;;;4975301;28;20187;-62
2023/10/04 09:50:23;;;;;;;15.63;5.63;;;15.90;99.90;;;;;;4978810;28;20689;-62
2023/10/04 09:52:50;;;;;;;13.48;6.30;;;16.00;99.90;;;;;;4996849;28;20570;-62
2023/10/04 09:55:16;;;;;;;14.82;6.25;;;16.10;99.90;;;;;;4996686;28;20161;-61
2023/10/04 09:57:47;;;;;;;18.05;7.25;;;16.00;99.90;;;;;;4978792;28;20251;-63
2023/10/04 10:00:18;;;;;;;12.10;6.47;;;16.10;99.90;;;;;;4978738;28;20259;-62
2023/10/04 10:02:52;;;;;;;12.82;5.85;;;16.20;99.90;;;;;;4996747;28;20165;-61
2023/10/04 10:05:32;;;;;;;12.80;5.78;;;16.10;99.90;;;;;;4978637;28;20168;-62
2023/10/04 10:08:05;;;;;;;15.93;6.45;;;16.10;99.90;;;;;;4978857;28;20187;-61
2023/10/04 10:10:40;;;;;;;16.10;5.90;;;16.00;99.90;;;;;;4991830;28;20693;-60
2023/10/04 10:13:09;;;;;;;13.18;6.07;;;16.10;99.90;;;;;;4976606;28;20224;-61
2023/10/04 10:15:38;;;;;;;15.38;6.25;;;16.00;99.90;;;;;;4976686;28;20157;-60
2023/10/04 10:18:07;;;;;;;14.50;6.32;;;16.00;99.90;;;;;;4976942;28;20183;-61
2023/10/04 10:20:34;;;;;;;17.88;6.18;;;16.10;99.90;;;;;;4995600;28;20196;-61
2023/10/04 10:23:00;;;;;;;15.82;6.22;;;16.00;99.90;;;;;;4995914;28;20236;-60
2023/10/04 10:25:28;;;;;;;14.27;5.60;;;16.10;99.90;;;;;;4995897;28;20198;-61
2023/10/04 10:28:02;;;;;;;14.18;5.95;;;16.10;99.90;;;;;;4994639;28;20176;-61
2023/10/04 10:30:31;;;;;;;14.23;5.53;;;16.10;99.90;;;;;;4995707;28;20668;-61
2023/10/04 10:32:59;;;;;;;12.27;5.40;;;16.20;99.90;;;;;;4995767;28;20187;-61
2023/10/04 10:35:49;;;;;;;15.63;5.15;;;16.40;99.90;;;;;;4995481;28;20168;-61
2023/10/04 10:38:41;;;;;;;11.20;5.85;;;16.40;99.90;;;;;;4994498;28;20245;-61
2023/10/04 10:41:29;;;;;;;10.52;5.63;;;16.40;99.90;;;;;;4964414;28;20587;-61
2023/10/04 10:44:16;;;;;;;13.07;5.13;;;16.40;99.90;;;;;;4976523;28;20182;-61
2023/10/04 10:47:14;;;;;;;9.02;4.65;;;16.40;99.90;;;;;;4974901;28;20199;-61
2023/10/04 10:49:52;;;;;;;12.60;4.72;;;16.40;99.90;;;;;;4990854;28;20187;-61
2023/10/04 10:52:31;;;;;;;10.30;5.00;;;16.50;99.90;;;;;;4994502;28;20192;-61
2023/10/04 10:54:59;;;;;;;15.50;5.13;;;16.50;99.90;;;;;;4995684;28;20157;-60
2023/10/04 10:57:30;;;;;;;14.73;4.80;;;16.30;99.90;;;;;;4995291;28;20239;-60
2023/10/04 10:59:58;;;;;;;16.15;5.68;;;16.30;99.90;;;;;;4996522;28;20157;-61
2023/10/04 11:02:25;;;;;;;8.85;4.70;;;16.40;99.90;;;;;;4995271;28;20211;-60
2023/10/04 11:04:52;;;;;;;17.25;5.40;;;16.50;99.90;;;;;;4995148;28;20703;-60
2023/10/04 11:07:19;;;;;;;14.80;4.80;;;16.70;99.90;;;;;;4995169;28;20184;-61
2023/10/04 11:09:51;;;;;;;13.40;5.97;;;16.80;99.90;;;;;;4994557;28;20652;-60
2023/10/04 11:12:18;;;;;;;13.35;5.15;;;16.70;99.90;;;;;;4976507;28;20213;-60
2023/10/04 11:14:44;;;;;;;13.48;5.07;;;16.50;99.90;;;;;;4975435;28;20173;-61
2023/10/04 11:17:10;;;;;;;13.05;4.75;;;16.50;99.90;;;;;;4975363;28;20688;-60
2023/10/04 11:19:36;;;;;;;10.93;4.82;;;16.50;99.90;;;;;;4975626;28;20166;-60
2023/10/04 11:22:03;;;;;;;10.07;4.50;;;16.50;99.90;;;;;;4974937;28;20197;-60
2023/10/04 11:24:29;;;;;;;8.90;4.57;;;16.80;99.90;;;;;;4975494;28;20236;-60
2023/10/04 11:26:57;;;;;;;8.77;4.13;;;16.90;99.90;;;;;;4975554;28;20243;-59
2023/10/04 11:29:33;;;;;;;11.95;4.55;;;16.90;99.90;;;;;;4975325;28;20650;-60
2023/10/04 11:32:00;;;;;;;11.80;4.45;;;16.80;99.90;;;;;;4975137;28;20232;-60
2023/10/04 11:34:28;;;;;;;10.93;4.57;;;16.80;99.90;;;;;;4975291;28;20154;-60
2023/10/04 11:37:00;;;;;;;11.07;4.80;;;16.90;99.90;;;;;;4989780;28;20251;-60
2023/10/04 11:39:34;;;;;;;11.18;4.78;;;16.80;99.90;;;;;;4994418;28;20645;-60
2023/10/04 11:42:05;;;;;;;9.52;4.55;;;16.80;99.90;;;;;;4978107;28;20226;-60
2023/10/04 11:44:32;;;;;;;11.27;4.70;;;16.70;99.90;;;;;;4975230;28;20164;-60
2023/10/04 11:47:00;;;;;;;11.23;4.60;;;16.80;99.90;;;;;;4974771;28;20180;-60
2023/10/04 11:49:28;;;;;;;11.27;4.88;;;16.80;99.90;;;;;;4974887;28;20260;-60
2023/10/04 11:51:59;;;;;;;12.32;5.05;;;16.80;99.90;;;;;;4974626;28;20285;-61
2023/10/04 11:54:36;;;;;;;13.45;4.55;;;16.70;99.90;;;;;;4974899;28;20168;-60
2023/10/04 11:57:03;;;;;;;8.27;5.15;;;16.70;99.90;;;;;;4975122;28;20192;-60
2023/10/04 11:59:30;;;;;;;9.48;4.85;;;16.90;99.90;;;;;;4975330;28;20266;-60
2023/10/04 12:01:56;;;;;;;14.32;4.53;;;17.10;99.90;;;;;;4974531;28;20216;-62
2023/10/04 12:04:22;;;;;;;13.55;5.10;;;17.40;99.90;;;;;;4974609;28;20166;-60
2023/10/04 12:07:08;;;;;;;10.50;4.60;;;17.60;99.90;;;;;;4974511;28;20611;-61
2023/10/04 12:09:34;;;;;;;10.52;4.85;;;17.70;99.90;;;;;;4974682;28;20165;-60
2023/10/04 12:12:05;;;;;;;11.93;4.97;;;17.50;99.90;;;;;;4974458;28;20216;-60
2023/10/04 12:14:32;;;;;;;9.95;4.45;;;17.20;99.90;;;;;;4974655;28;20184;-60
2023/10/04 12:17:04;;;;;;;12.65;5.50;;;17.10;99.90;;;;;;4967859;28;20643;-61
2023/10/04 12:19:35;;;;;;;12.23;5.18;;;17.20;99.90;;;;;;4977681;28;20199;-60
2023/10/04 12:22:08;;;;;;;9.27;5.05;;;17.30;99.90;;;;;;4993506;28;20208;-61
2023/10/04 12:24:38;;;;;;;13.27;4.97;;;17.40;99.90;;;;;;4994053;28;20210;-60
2023/10/04 12:27:08;;;;;;;10.55;4.63;;;17.40;99.90;;;;;;4993934;28;20251;-60
2023/10/04 12:29:38;;;;;;;10.63;5.38;;;17.30;99.90;;;;;;4993906;28;20207;-61
2023/10/04 12:32:06;;;;;;;10.52;4.75;;;17.30;99.90;;;;;;4993891;28;20200;-60
2023/10/04 12:34:32;;;;;;;8.20;4.30;;;17.30;99.90;;;;;;4993786;28;20187;-60
2023/10/04 12:37:00;;;;;;;11.13;5.00;;;17.20;99.90;;;;;;4992409;28;20546;-61
2023/10/04 12:39:26;;;;;;;13.77;4.55;;;17.30;99.90;;;;;;4994384;28;20180;-60
2023/10/04 12:41:55;;;;;;;9.07;4.10;;;17.30;99.90;;;;;;4978525;28;20358;-61
2023/10/04 12:44:21;;;;;;;14.38;4.50;;;17.30;99.90;;;;;;4973044;28;20236;-62
2023/10/04 12:46:48;;;;;;;9.68;4.22;;;17.40;99.90;;;;;;4968859;28;20186;-61
2023/10/04 12:49:18;;;;;;;9.13;4.05;;;17.50;99.90;;;;;;4988498;28;20180;-61
2023/10/04 12:51:46;;;;;;;9.93;4.50;;;17.30;99.90;;;;;;4993525;28;20215;-62
2023/10/04 12:54:12;;;;;;;10.27;4.60;;;17.10;99.90;;;;;;4977118;28;20185;-61